sensor_id;sensor_type;location;lat;lon;timestamp;temperature;humidity
25438;DHT22;13364;49.084;9.978;2024-02-26T00:02:07;5.80;88.10
25438;DHT22;13364;49.084;9.978;2024-02-26T00:04:34;5.80;88.20
25438;DHT22;13364;49.084;9.978;2024-02-26T00:07:01;5.80;88.20
25438;DHT22;13364;49.084;9.978;2024-02-26T00:09:28;5.80;88.10
25438;DHT22;13364;49.084;9.978;2024-02-26T00:11:55;5.80;87.90
25438;DHT22;13364;49.084;9.978;2024-02-26T00:14:22;5.80;87.80
25438;DHT22;13364;49.084;9.978;2024-02-26T00:16:48;5.90;87.70
25438;DHT22;13364;49.084;9.978;2024-02-26T00:19:15;5.90;87.60
25438;DHT22;13364;49.084;9.978;2024-02-26T00:21:42;5.80;87.60
25438;DHT22;13364;49.084;9.978;2024-02-26T00:24:09;5.90;87.60
25438;DHT22;13364;49.084;9.978;2024-02-26T00:26:36;5.90;87.50
25438;DHT22;13364;49.084;9.978;2024-02-26T00:29:03;5.90;87.40
25438;DHT22;13364;49.084;9.978;2024-02-26T00:31:30;6.00;87.20
25438;DHT22;13364;49.084;9.978;2024-02-26T00:33:57;5.90;87.00
25438;DHT22;13364;49.084;9.978;2024-02-26T00:36:24;6.00;86.80
25438;DHT22;13364;49.084;9.978;2024-02-26T00:38:51;6.00;86.80
25438;DHT22;13364;49.084;9.978;2024-02-26T00:41:18;6.00;86.70
25438;DHT22;13364;49.084;9.978;2024-02-26T00:43:45;6.00;86.60
25438;DHT22;13364;49.084;9.978;2024-02-26T00:46:12;6.00;86.40
25438;DHT22;13364;49.084;9.978;2024-02-26T00:48:39;6.00;86.30
25438;DHT22;13364;49.084;9.978;2024-02-26T00:51:06;6.00;86.20
25438;DHT22;13364;49.084;9.978;2024-02-26T00:53:34;6.00;86.30
25438;DHT22;13364;49.084;9.978;2024-02-26T00:56:01;5.90;86.30
25438;DHT22;13364;49.084;9.978;2024-02-26T00:58:28;5.90;86.40
25438;DHT22;13364;49.084;9.978;2024-02-26T01:00:55;5.90;86.50
25438;DHT22;13364;49.084;9.978;2024-02-26T01:03:22;5.90;86.50
25438;DHT22;13364;49.084;9.978;2024-02-26T01:05:49;5.90;86.50
25438;DHT22;13364;49.084;9.978;2024-02-26T01:08:16;5.90;86.50
25438;DHT22;13364;49.084;9.978;2024-02-26T01:10:43;5.80;86.60
25438;DHT22;13364;49.084;9.978;2024-02-26T01:13:10;5.80;86.70
25438;DHT22;13364;49.084;9.978;2024-02-26T01:15:37;5.80;86.90
25438;DHT22;13364;49.084;9.978;2024-02-26T01:18:04;5.80;86.80
25438;DHT22;13364;49.084;9.978;2024-02-26T01:20:31;5.80;86.70
25438;DHT22;13364;49.084;9.978;2024-02-26T01:22:57;5.80;86.80
25438;DHT22;13364;49.084;9.978;2024-02-26T01:25:24;5.80;86.90
25438;DHT22;13364;49.084;9.978;2024-02-26T01:27:51;5.70;87.00
25438;DHT22;13364;49.084;9.978;2024-02-26T01:30:17;5.70;87.10
25438;DHT22;13364;49.084;9.978;2024-02-26T01:32:45;5.70;86.90
25438;DHT22;13364;49.084;9.978;2024-02-26T01:35:12;5.70;86.80
25438;DHT22;13364;49.084;9.978;2024-02-26T01:37:39;5.70;86.80
25438;DHT22;13364;49.084;9.978;2024-02-26T01:40:06;5.70;86.90
25438;DHT22;13364;49.084;9.978;2024-02-26T01:42:34;5.70;86.90
25438;DHT22;13364;49.084;9.978;2024-02-26T01:45:00;5.70;86.70
25438;DHT22;13364;49.084;9.978;2024-02-26T01:47:28;5.70;86.70
25438;DHT22;13364;49.084;9.978;2024-02-26T01:49:55;5.70;86.60
25438;DHT22;13364;49.084;9.978;2024-02-26T01:52:22;5.70;86.60
25438;DHT22;13364;49.084;9.978;2024-02-26T01:54:50;5.70;86.50
25438;DHT22;13364;49.084;9.978;2024-02-26T01:57:17;5.70;86.40
25438;DHT22;13364;49.084;9.978;2024-02-26T01:59:45;5.70;86.30
25438;DHT22;13364;49.084;9.978;2024-02-26T02:02:11;5.80;86.10
25438;DHT22;13364;49.084;9.978;2024-02-26T02:04:39;5.80;85.80
25438;DHT22;13364;49.084;9.978;2024-02-26T02:07:06;5.80;85.80
25438;DHT22;13364;49.084;9.978;2024-02-26T02:09:33;5.80;85.80
25438;DHT22;13364;49.084;9.978;2024-02-26T02:12:00;5.70;85.70
25438;DHT22;13364;49.084;9.978;2024-02-26T02:14:27;5.70;85.70
25438;DHT22;13364;49.084;9.978;2024-02-26T02:16:54;5.70;85.70
25438;DHT22;13364;49.084;9.978;2024-02-26T02:19:21;5.70;85.60
25438;DHT22;13364;49.084;9.978;2024-02-26T02:21:48;5.70;85.60
25438;DHT22;13364;49.084;9.978;2024-02-26T02:24:14;5.70;85.60
25438;DHT22;13364;49.084;9.978;2024-02-26T02:26:41;5.70;85.60
25438;DHT22;13364;49.084;9.978;2024-02-26T02:29:08;5.70;85.60
25438;DHT22;13364;49.084;9.978;2024-02-26T02:31:36;5.60;85.60
25438;DHT22;13364;49.084;9.978;2024-02-26T02:34:03;5.50;85.90
25438;DHT22;13364;49.084;9.978;2024-02-26T02:36:30;5.50;86.10
25438;DHT22;13364;49.084;9.978;2024-02-26T02:38:57;5.50;86.20
25438;DHT22;13364;49.084;9.978;2024-02-26T02:41:24;5.50;86.10
25438;DHT22;13364;49.084;9.978;2024-02-26T02:43:53;5.50;86.20
25438;DHT22;13364;49.084;9.978;2024-02-26T02:46:19;5.50;86.20
25438;DHT22;13364;49.084;9.978;2024-02-26T02:48:46;5.50;86.20
25438;DHT22;13364;49.084;9.978;2024-02-26T02:51:13;5.50;86.20
25438;DHT22;13364;49.084;9.978;2024-02-26T02:53:40;5.50;86.30
25438;DHT22;13364;49.084;9.978;2024-02-26T02:56:07;5.50;86.30
25438;DHT22;13364;49.084;9.978;2024-02-26T02:58:34;5.50;86.30
25438;DHT22;13364;49.084;9.978;2024-02-26T03:01:01;5.40;86.50
25438;DHT22;13364;49.084;9.978;2024-02-26T03:03:28;5.50;86.50
25438;DHT22;13364;49.084;9.978;2024-02-26T03:05:55;5.50;86.60
25438;DHT22;13364;49.084;9.978;2024-02-26T03:08:23;5.50;86.80
25438;DHT22;13364;49.084;9.978;2024-02-26T03:10:50;5.50;86.80
25438;DHT22;13364;49.084;9.978;2024-02-26T03:13:17;5.50;87.00
25438;DHT22;13364;49.084;9.978;2024-02-26T03:15:44;5.50;87.10
25438;DHT22;13364;49.084;9.978;2024-02-26T03:18:11;5.50;86.90
25438;DHT22;13364;49.084;9.978;2024-02-26T03:20:38;5.50;86.80
25438;DHT22;13364;49.084;9.978;2024-02-26T03:23:05;5.50;86.70
25438;DHT22;13364;49.084;9.978;2024-02-26T03:25:32;5.50;86.60
25438;DHT22;13364;49.084;9.978;2024-02-26T03:27:58;5.40;86.50
25438;DHT22;13364;49.084;9.978;2024-02-26T03:30:25;5.40;86.70
25438;DHT22;13364;49.084;9.978;2024-02-26T03:32:52;5.40;86.90
25438;DHT22;13364;49.084;9.978;2024-02-26T03:35:19;5.40;86.80
25438;DHT22;13364;49.084;9.978;2024-02-26T03:37:46;5.50;86.60
25438;DHT22;13364;49.084;9.978;2024-02-26T03:40:14;5.40;86.70
25438;DHT22;13364;49.084;9.978;2024-02-26T03:42:41;5.40;86.90
25438;DHT22;13364;49.084;9.978;2024-02-26T03:45:08;5.40;87.00
25438;DHT22;13364;49.084;9.978;2024-02-26T03:47:37;5.40;86.90
25438;DHT22;13364;49.084;9.978;2024-02-26T03:50:06;5.40;86.80
25438;DHT22;13364;49.084;9.978;2024-02-26T03:52:33;5.50;86.60
25438;DHT22;13364;49.084;9.978;2024-02-26T03:55:00;5.50;86.50
25438;DHT22;13364;49.084;9.978;2024-02-26T03:57:27;5.50;86.40
25438;DHT22;13364;49.084;9.978;2024-02-26T03:59:54;5.50;86.50
25438;DHT22;13364;49.084;9.978;2024-02-26T04:02:21;5.50;86.40
25438;DHT22;13364;49.084;9.978;2024-02-26T04:04:50;5.50;86.40
25438;DHT22;13364;49.084;9.978;2024-02-26T04:07:17;5.50;86.30
25438;DHT22;13364;49.084;9.978;2024-02-26T04:09:44;5.50;86.20
25438;DHT22;13364;49.084;9.978;2024-02-26T04:12:11;5.50;86.30
25438;DHT22;13364;49.084;9.978;2024-02-26T04:14:38;5.50;86.20
25438;DHT22;13364;49.084;9.978;2024-02-26T04:17:05;5.40;86.50
25438;DHT22;13364;49.084;9.978;2024-02-26T04:19:32;5.40;87.10
25438;DHT22;13364;49.084;9.978;2024-02-26T04:21:59;5.40;87.40
25438;DHT22;13364;49.084;9.978;2024-02-26T04:24:26;5.40;87.30
25438;DHT22;13364;49.084;9.978;2024-02-26T04:26:53;5.40;87.20
25438;DHT22;13364;49.084;9.978;2024-02-26T04:29:20;5.40;87.10
25438;DHT22;13364;49.084;9.978;2024-02-26T04:31:47;5.40;87.20
25438;DHT22;13364;49.084;9.978;2024-02-26T04:34:14;5.40;87.30
25438;DHT22;13364;49.084;9.978;2024-02-26T04:36:42;5.40;87.40
25438;DHT22;13364;49.084;9.978;2024-02-26T04:39:09;5.40;87.60
25438;DHT22;13364;49.084;9.978;2024-02-26T04:41:36;5.40;87.60
25438;DHT22;13364;49.084;9.978;2024-02-26T04:44:03;5.40;87.90
25438;DHT22;13364;49.084;9.978;2024-02-26T04:46:30;5.40;87.90
25438;DHT22;13364;49.084;9.978;2024-02-26T04:48:57;5.50;88.00
25438;DHT22;13364;49.084;9.978;2024-02-26T04:51:25;5.50;88.00
25438;DHT22;13364;49.084;9.978;2024-02-26T04:53:52;5.50;88.10
25438;DHT22;13364;49.084;9.978;2024-02-26T04:56:21;5.60;88.20
25438;DHT22;13364;49.084;9.978;2024-02-26T04:58:48;5.60;88.30
25438;DHT22;13364;49.084;9.978;2024-02-26T05:01:15;5.60;88.10
25438;DHT22;13364;49.084;9.978;2024-02-26T05:03:43;5.60;88.00
25438;DHT22;13364;49.084;9.978;2024-02-26T05:06:10;5.50;88.00
25438;DHT22;13364;49.084;9.978;2024-02-26T05:08:37;5.50;88.10
25438;DHT22;13364;49.084;9.978;2024-02-26T05:11:05;5.60;88.20
25438;DHT22;13364;49.084;9.978;2024-02-26T05:13:32;5.60;88.00
25438;DHT22;13364;49.084;9.978;2024-02-26T05:15:59;5.60;88.10
25438;DHT22;13364;49.084;9.978;2024-02-26T05:18:27;5.60;88.00
25438;DHT22;13364;49.084;9.978;2024-02-26T05:20:54;5.60;88.10
25438;DHT22;13364;49.084;9.978;2024-02-26T05:23:21;5.70;87.90
25438;DHT22;13364;49.084;9.978;2024-02-26T05:25:49;5.70;87.90
25438;DHT22;13364;49.084;9.978;2024-02-26T05:28:16;5.70;88.00
25438;DHT22;13364;49.084;9.978;2024-02-26T05:30:45;5.60;88.20
25438;DHT22;13364;49.084;9.978;2024-02-26T05:33:12;5.50;88.60
25438;DHT22;13364;49.084;9.978;2024-02-26T05:35:43;5.50;89.00
25438;DHT22;13364;49.084;9.978;2024-02-26T05:38:11;5.50;89.10
25438;DHT22;13364;49.084;9.978;2024-02-26T05:40:38;5.50;89.20
25438;DHT22;13364;49.084;9.978;2024-02-26T05:43:05;5.60;89.20
25438;DHT22;13364;49.084;9.978;2024-02-26T05:45:32;5.50;89.20
25438;DHT22;13364;49.084;9.978;2024-02-26T05:47:59;5.50;89.40
25438;DHT22;13364;49.084;9.978;2024-02-26T05:50:26;5.50;89.60
25438;DHT22;13364;49.084;9.978;2024-02-26T05:52:53;5.50;89.40
25438;DHT22;13364;49.084;9.978;2024-02-26T05:55:20;5.40;89.60
25438;DHT22;13364;49.084;9.978;2024-02-26T05:57:47;5.40;89.80
25438;DHT22;13364;49.084;9.978;2024-02-26T06:00:14;5.30;90.20
25438;DHT22;13364;49.084;9.978;2024-02-26T06:02:41;5.30;90.50
25438;DHT22;13364;49.084;9.978;2024-02-26T06:05:08;5.30;90.40
25438;DHT22;13364;49.084;9.978;2024-02-26T06:07:36;5.30;90.60
25438;DHT22;13364;49.084;9.978;2024-02-26T06:10:03;5.30;90.70
25438;DHT22;13364;49.084;9.978;2024-02-26T06:12:31;5.30;90.60
25438;DHT22;13364;49.084;9.978;2024-02-26T06:14:59;5.30;90.60
25438;DHT22;13364;49.084;9.978;2024-02-26T06:17:28;5.30;90.80
25438;DHT22;13364;49.084;9.978;2024-02-26T06:19:55;5.30;91.00
25438;DHT22;13364;49.084;9.978;2024-02-26T06:22:22;5.30;90.80
25438;DHT22;13364;49.084;9.978;2024-02-26T06:24:48;5.20;91.10
25438;DHT22;13364;49.084;9.978;2024-02-26T06:27:15;5.20;91.20
25438;DHT22;13364;49.084;9.978;2024-02-26T06:29:42;5.20;91.20
25438;DHT22;13364;49.084;9.978;2024-02-26T06:32:09;5.20;91.30
25438;DHT22;13364;49.084;9.978;2024-02-26T06:34:36;5.20;91.50
25438;DHT22;13364;49.084;9.978;2024-02-26T06:37:05;5.20;91.60
25438;DHT22;13364;49.084;9.978;2024-02-26T06:39:32;5.20;91.80
25438;DHT22;13364;49.084;9.978;2024-02-26T06:41:59;5.20;91.70
25438;DHT22;13364;49.084;9.978;2024-02-26T06:44:29;5.20;91.70
25438;DHT22;13364;49.084;9.978;2024-02-26T06:46:58;5.20;91.90
25438;DHT22;13364;49.084;9.978;2024-02-26T06:49:26;5.20;91.90
25438;DHT22;13364;49.084;9.978;2024-02-26T06:51:54;5.20;91.90
25438;DHT22;13364;49.084;9.978;2024-02-26T06:54:21;5.20;91.90
25438;DHT22;13364;49.084;9.978;2024-02-26T06:56:48;5.20;91.80
25438;DHT22;13364;49.084;9.978;2024-02-26T06:59:14;5.30;91.70
25438;DHT22;13364;49.084;9.978;2024-02-26T07:01:42;5.30;91.50
25438;DHT22;13364;49.084;9.978;2024-02-26T07:04:08;5.30;91.60
25438;DHT22;13364;49.084;9.978;2024-02-26T07:06:37;5.30;91.50
25438;DHT22;13364;49.084;9.978;2024-02-26T07:09:04;5.30;91.50
25438;DHT22;13364;49.084;9.978;2024-02-26T07:11:31;5.20;91.60
25438;DHT22;13364;49.084;9.978;2024-02-26T07:13:58;5.20;91.60
25438;DHT22;13364;49.084;9.978;2024-02-26T07:16:25;5.20;92.10
25438;DHT22;13364;49.084;9.978;2024-02-26T07:18:53;5.10;92.90
25438;DHT22;13364;49.084;9.978;2024-02-26T07:21:20;5.10;93.30
25438;DHT22;13364;49.084;9.978;2024-02-26T07:23:47;5.20;93.60
25438;DHT22;13364;49.084;9.978;2024-02-26T07:26:13;5.20;94.50
25438;DHT22;13364;49.084;9.978;2024-02-26T07:28:41;5.20;94.80
25438;DHT22;13364;49.084;9.978;2024-02-26T07:31:07;5.20;95.10
25438;DHT22;13364;49.084;9.978;2024-02-26T07:33:34;5.30;95.00
25438;DHT22;13364;49.084;9.978;2024-02-26T07:36:01;5.30;95.10
25438;DHT22;13364;49.084;9.978;2024-02-26T07:38:29;5.40;95.10
25438;DHT22;13364;49.084;9.978;2024-02-26T07:41:08;5.50;95.10
25438;DHT22;13364;49.084;9.978;2024-02-26T07:43:35;5.60;95.00
25438;DHT22;13364;49.084;9.978;2024-02-26T07:46:02;5.60;94.80
25438;DHT22;13364;49.084;9.978;2024-02-26T07:48:29;5.70;94.60
25438;DHT22;13364;49.084;9.978;2024-02-26T07:50:56;5.70;94.60
25438;DHT22;13364;49.084;9.978;2024-02-26T07:53:26;5.70;94.50
25438;DHT22;13364;49.084;9.978;2024-02-26T07:55:52;5.70;94.40
25438;DHT22;13364;49.084;9.978;2024-02-26T07:58:19;5.80;94.10
25438;DHT22;13364;49.084;9.978;2024-02-26T08:00:46;5.80;93.80
25438;DHT22;13364;49.084;9.978;2024-02-26T08:03:13;5.90;93.70
25438;DHT22;13364;49.084;9.978;2024-02-26T08:05:42;6.00;93.60
25438;DHT22;13364;49.084;9.978;2024-02-26T08:08:10;6.00;93.60
25438;DHT22;13364;49.084;9.978;2024-02-26T08:10:37;6.10;93.50
25438;DHT22;13364;49.084;9.978;2024-02-26T08:13:04;6.10;93.40
25438;DHT22;13364;49.084;9.978;2024-02-26T08:15:34;6.20;93.20
25438;DHT22;13364;49.084;9.978;2024-02-26T08:18:02;6.20;93.10
25438;DHT22;13364;49.084;9.978;2024-02-26T08:20:30;6.20;93.40
25438;DHT22;13364;49.084;9.978;2024-02-26T08:22:58;6.20;93.20
25438;DHT22;13364;49.084;9.978;2024-02-26T08:25:24;6.20;93.20
25438;DHT22;13364;49.084;9.978;2024-02-26T08:27:52;6.30;92.90
25438;DHT22;13364;49.084;9.978;2024-02-26T08:30:19;6.40;92.40
25438;DHT22;13364;49.084;9.978;2024-02-26T08:32:48;6.50;92.50
25438;DHT22;13364;49.084;9.978;2024-02-26T08:35:18;6.60;92.30
25438;DHT22;13364;49.084;9.978;2024-02-26T08:37:46;6.60;91.90
25438;DHT22;13364;49.084;9.978;2024-02-26T08:40:14;6.70;91.80
25438;DHT22;13364;49.084;9.978;2024-02-26T08:42:41;6.80;91.60
25438;DHT22;13364;49.084;9.978;2024-02-26T08:45:09;6.80;91.40
25438;DHT22;13364;49.084;9.978;2024-02-26T08:47:36;6.90;91.20
25438;DHT22;13364;49.084;9.978;2024-02-26T08:50:04;6.90;91.10
25438;DHT22;13364;49.084;9.978;2024-02-26T08:52:31;7.00;90.80
25438;DHT22;13364;49.084;9.978;2024-02-26T08:54:58;7.10;90.60
25438;DHT22;13364;49.084;9.978;2024-02-26T08:57:25;7.10;90.80
25438;DHT22;13364;49.084;9.978;2024-02-26T08:59:54;7.20;90.20
25438;DHT22;13364;49.084;9.978;2024-02-26T09:02:21;7.30;89.80
25438;DHT22;13364;49.084;9.978;2024-02-26T09:04:47;7.30;89.30
25438;DHT22;13364;49.084;9.978;2024-02-26T09:07:14;7.30;89.40
25438;DHT22;13364;49.084;9.978;2024-02-26T09:09:41;7.30;89.60
25438;DHT22;13364;49.084;9.978;2024-02-26T09:12:08;7.40;89.80
25438;DHT22;13364;49.084;9.978;2024-02-26T09:14:35;7.40;89.60
25438;DHT22;13364;49.084;9.978;2024-02-26T09:17:02;7.50;89.20
25438;DHT22;13364;49.084;9.978;2024-02-26T09:19:30;7.60;89.10
25438;DHT22;13364;49.084;9.978;2024-02-26T09:21:57;7.60;89.10
25438;DHT22;13364;49.084;9.978;2024-02-26T09:24:25;7.70;88.80
25438;DHT22;13364;49.084;9.978;2024-02-26T09:26:52;7.70;88.40
25438;DHT22;13364;49.084;9.978;2024-02-26T09:29:19;7.80;88.00
25438;DHT22;13364;49.084;9.978;2024-02-26T09:31:46;7.90;87.90
25438;DHT22;13364;49.084;9.978;2024-02-26T09:34:16;7.90;88.10
25438;DHT22;13364;49.084;9.978;2024-02-26T09:36:43;8.00;88.00
25438;DHT22;13364;49.084;9.978;2024-02-26T09:39:10;8.00;87.70
25438;DHT22;13364;49.084;9.978;2024-02-26T09:41:39;8.10;87.40
25438;DHT22;13364;49.084;9.978;2024-02-26T09:44:06;8.20;87.00
25438;DHT22;13364;49.084;9.978;2024-02-26T09:46:33;8.20;86.60
25438;DHT22;13364;49.084;9.978;2024-02-26T09:49:01;8.20;86.70
25438;DHT22;13364;49.084;9.978;2024-02-26T09:51:28;8.30;86.70
25438;DHT22;13364;49.084;9.978;2024-02-26T09:53:59;8.30;86.30
25438;DHT22;13364;49.084;9.978;2024-02-26T09:56:28;8.40;86.20
25438;DHT22;13364;49.084;9.978;2024-02-26T09:58:56;8.40;86.30
25438;DHT22;13364;49.084;9.978;2024-02-26T10:01:24;8.50;85.90
25438;DHT22;13364;49.084;9.978;2024-02-26T10:03:57;8.50;86.00
25438;DHT22;13364;49.084;9.978;2024-02-26T10:06:26;8.60;85.70
25438;DHT22;13364;49.084;9.978;2024-02-26T10:08:55;8.70;85.70
25438;DHT22;13364;49.084;9.978;2024-02-26T10:11:22;8.80;85.50
25438;DHT22;13364;49.084;9.978;2024-02-26T10:13:50;8.80;85.10
25438;DHT22;13364;49.084;9.978;2024-02-26T10:16:17;8.90;84.70
25438;DHT22;13364;49.084;9.978;2024-02-26T10:18:48;9.00;84.30
25438;DHT22;13364;49.084;9.978;2024-02-26T10:21:20;9.00;83.80
25438;DHT22;13364;49.084;9.978;2024-02-26T10:23:48;9.10;82.90
25438;DHT22;13364;49.084;9.978;2024-02-26T10:26:15;9.20;82.90
25438;DHT22;13364;49.084;9.978;2024-02-26T10:28:43;9.20;82.40
25438;DHT22;13364;49.084;9.978;2024-02-26T10:31:11;9.30;82.90
25438;DHT22;13364;49.084;9.978;2024-02-26T10:33:38;9.40;82.80
25438;DHT22;13364;49.084;9.978;2024-02-26T10:36:09;9.50;82.40
25438;DHT22;13364;49.084;9.978;2024-02-26T10:38:37;9.60;81.70
25438;DHT22;13364;49.084;9.978;2024-02-26T10:41:09;9.70;81.20
25438;DHT22;13364;49.084;9.978;2024-02-26T10:43:39;9.80;80.60
25438;DHT22;13364;49.084;9.978;2024-02-26T10:46:06;9.90;80.40
25438;DHT22;13364;49.084;9.978;2024-02-26T10:48:34;10.10;79.80
25438;DHT22;13364;49.084;9.978;2024-02-26T10:51:01;10.30;80.00
25438;DHT22;13364;49.084;9.978;2024-02-26T10:53:29;10.40;78.70
25438;DHT22;13364;49.084;9.978;2024-02-26T10:56:04;10.60;77.70
25438;DHT22;13364;49.084;9.978;2024-02-26T10:58:32;10.70;77.30
25438;DHT22;13364;49.084;9.978;2024-02-26T11:01:00;10.80;77.00
25438;DHT22;13364;49.084;9.978;2024-02-26T11:03:28;10.90;76.20
25438;DHT22;13364;49.084;9.978;2024-02-26T11:05:59;11.00;75.60
25438;DHT22;13364;49.084;9.978;2024-02-26T11:08:28;11.10;76.10
25438;DHT22;13364;49.084;9.978;2024-02-26T11:10:55;11.10;75.30
25438;DHT22;13364;49.084;9.978;2024-02-26T11:13:27;11.20;74.00
25438;DHT22;13364;49.084;9.978;2024-02-26T11:15:55;11.30;73.80
25438;DHT22;13364;49.084;9.978;2024-02-26T11:18:27;11.40;73.70
25438;DHT22;13364;49.084;9.978;2024-02-26T11:20:54;11.40;72.80
25438;DHT22;13364;49.084;9.978;2024-02-26T11:23:24;11.50;72.80
25438;DHT22;13364;49.084;9.978;2024-02-26T11:25:52;11.60;71.60
25438;DHT22;13364;49.084;9.978;2024-02-26T11:28:21;11.70;72.20
25438;DHT22;13364;49.084;9.978;2024-02-26T11:30:49;11.70;72.30
25438;DHT22;13364;49.084;9.978;2024-02-26T11:33:18;11.70;72.30
25438;DHT22;13364;49.084;9.978;2024-02-26T11:35:46;11.60;73.20
25438;DHT22;13364;49.084;9.978;2024-02-26T11:38:24;11.40;72.90
25438;DHT22;13364;49.084;9.978;2024-02-26T11:40:51;11.30;73.30
25438;DHT22;13364;49.084;9.978;2024-02-26T11:43:23;11.30;74.10
25438;DHT22;13364;49.084;9.978;2024-02-26T11:46:27;11.40;74.20
25438;DHT22;13364;49.084;9.978;2024-02-26T11:48:56;11.50;73.30
25438;DHT22;13364;49.084;9.978;2024-02-26T11:51:27;11.50;72.70
25438;DHT22;13364;49.084;9.978;2024-02-26T11:53:54;11.60;72.00
25438;DHT22;13364;49.084;9.978;2024-02-26T11:56:24;11.60;71.70
25438;DHT22;13364;49.084;9.978;2024-02-26T11:59:11;11.60;70.80
25438;DHT22;13364;49.084;9.978;2024-02-26T12:01:47;11.60;71.30
25438;DHT22;13364;49.084;9.978;2024-02-26T12:04:22;11.60;71.20
25438;DHT22;13364;49.084;9.978;2024-02-26T12:06:55;11.70;70.70
25438;DHT22;13364;49.084;9.978;2024-02-26T12:09:43;11.70;70.90
25438;DHT22;13364;49.084;9.978;2024-02-26T12:12:10;11.70;70.40
25438;DHT22;13364;49.084;9.978;2024-02-26T12:14:51;11.80;70.30
25438;DHT22;13364;49.084;9.978;2024-02-26T12:17:24;11.90;69.80
25438;DHT22;13364;49.084;9.978;2024-02-26T12:19:52;11.90;70.10
25438;DHT22;13364;49.084;9.978;2024-02-26T12:22:20;12.00;70.30
25438;DHT22;13364;49.084;9.978;2024-02-26T12:24:47;12.10;69.20
25438;DHT22;13364;49.084;9.978;2024-02-26T12:27:14;12.20;68.30
25438;DHT22;13364;49.084;9.978;2024-02-26T12:29:42;12.20;67.80
25438;DHT22;13364;49.084;9.978;2024-02-26T12:32:08;12.20;67.10
25438;DHT22;13364;49.084;9.978;2024-02-26T12:34:35;12.30;67.30
25438;DHT22;13364;49.084;9.978;2024-02-26T12:37:03;12.40;65.90
25438;DHT22;13364;49.084;9.978;2024-02-26T12:39:30;12.50;66.20
25438;DHT22;13364;49.084;9.978;2024-02-26T12:41:58;12.50;65.20
25438;DHT22;13364;49.084;9.978;2024-02-26T12:44:26;12.60;64.80
25438;DHT22;13364;49.084;9.978;2024-02-26T12:47:03;12.60;65.20
25438;DHT22;13364;49.084;9.978;2024-02-26T12:49:31;12.70;65.00
25438;DHT22;13364;49.084;9.978;2024-02-26T12:51:59;12.80;64.10
25438;DHT22;13364;49.084;9.978;2024-02-26T12:54:30;12.80;63.90
25438;DHT22;13364;49.084;9.978;2024-02-26T12:57:00;12.90;63.90
25438;DHT22;13364;49.084;9.978;2024-02-26T12:59:29;12.90;63.60
25438;DHT22;13364;49.084;9.978;2024-02-26T13:01:56;12.90;63.20
25438;DHT22;13364;49.084;9.978;2024-02-26T13:04:25;12.80;63.10
25438;DHT22;13364;49.084;9.978;2024-02-26T13:06:52;12.80;63.50
25438;DHT22;13364;49.084;9.978;2024-02-26T13:09:19;12.80;62.50
25438;DHT22;13364;49.084;9.978;2024-02-26T13:11:46;12.90;62.10
25438;DHT22;13364;49.084;9.978;2024-02-26T13:14:21;12.90;62.50
25438;DHT22;13364;49.084;9.978;2024-02-26T13:16:57;12.90;62.30
25438;DHT22;13364;49.084;9.978;2024-02-26T13:19:24;12.90;62.40
25438;DHT22;13364;49.084;9.978;2024-02-26T13:21:52;12.90;62.70
25438;DHT22;13364;49.084;9.978;2024-02-26T13:24:20;12.90;63.50
25438;DHT22;13364;49.084;9.978;2024-02-26T13:26:47;12.90;62.80
25438;DHT22;13364;49.084;9.978;2024-02-26T13:29:18;12.90;62.80
25438;DHT22;13364;49.084;9.978;2024-02-26T13:31:45;12.80;62.80
25438;DHT22;13364;49.084;9.978;2024-02-26T13:34:29;12.80;63.30
25438;DHT22;13364;49.084;9.978;2024-02-26T13:36:57;12.80;63.20
25438;DHT22;13364;49.084;9.978;2024-02-26T13:39:25;12.70;63.20
25438;DHT22;13364;49.084;9.978;2024-02-26T13:41:54;12.70;64.00
25438;DHT22;13364;49.084;9.978;2024-02-26T13:44:21;12.70;63.60
25438;DHT22;13364;49.084;9.978;2024-02-26T13:46:48;12.60;64.00
25438;DHT22;13364;49.084;9.978;2024-02-26T13:49:16;12.60;64.30
25438;DHT22;13364;49.084;9.978;2024-02-26T13:51:43;12.60;64.50
25438;DHT22;13364;49.084;9.978;2024-02-26T13:54:10;12.50;64.90
25438;DHT22;13364;49.084;9.978;2024-02-26T13:56:37;12.50;65.20
25438;DHT22;13364;49.084;9.978;2024-02-26T13:59:04;12.50;65.30
25438;DHT22;13364;49.084;9.978;2024-02-26T14:01:31;12.50;65.20
25438;DHT22;13364;49.084;9.978;2024-02-26T14:04:00;12.40;65.20
25438;DHT22;13364;49.084;9.978;2024-02-26T14:06:29;12.40;64.90
25438;DHT22;13364;49.084;9.978;2024-02-26T14:08:58;12.40;65.10
25438;DHT22;13364;49.084;9.978;2024-02-26T14:11:25;12.30;65.00
25438;DHT22;13364;49.084;9.978;2024-02-26T14:13:52;12.30;65.30
25438;DHT22;13364;49.084;9.978;2024-02-26T14:16:19;12.20;65.60
25438;DHT22;13364;49.084;9.978;2024-02-26T14:18:47;12.20;65.70
25438;DHT22;13364;49.084;9.978;2024-02-26T14:21:14;12.30;65.40
25438;DHT22;13364;49.084;9.978;2024-02-26T14:23:41;12.20;65.70
25438;DHT22;13364;49.084;9.978;2024-02-26T14:26:09;12.20;66.20
25438;DHT22;13364;49.084;9.978;2024-02-26T14:28:36;12.20;66.20
25438;DHT22;13364;49.084;9.978;2024-02-26T14:31:05;12.30;66.60
25438;DHT22;13364;49.084;9.978;2024-02-26T14:33:32;12.20;66.40
25438;DHT22;13364;49.084;9.978;2024-02-26T14:35:59;12.20;66.60
25438;DHT22;13364;49.084;9.978;2024-02-26T14:38:26;12.20;66.30
25438;DHT22;13364;49.084;9.978;2024-02-26T14:40:53;12.20;66.80
25438;DHT22;13364;49.084;9.978;2024-02-26T14:43:20;12.20;66.30
25438;DHT22;13364;49.084;9.978;2024-02-26T14:45:46;12.20;66.70
25438;DHT22;13364;49.084;9.978;2024-02-26T14:48:13;12.30;66.80
25438;DHT22;13364;49.084;9.978;2024-02-26T14:50:40;12.30;66.90
25438;DHT22;13364;49.084;9.978;2024-02-26T14:53:07;12.30;67.30
25438;DHT22;13364;49.084;9.978;2024-02-26T14:55:34;12.40;67.20
25438;DHT22;13364;49.084;9.978;2024-02-26T14:58:04;12.40;67.00
25438;DHT22;13364;49.084;9.978;2024-02-26T15:00:30;12.40;66.50
25438;DHT22;13364;49.084;9.978;2024-02-26T15:03:00;12.40;66.50
25438;DHT22;13364;49.084;9.978;2024-02-26T15:05:27;12.40;66.30
25438;DHT22;13364;49.084;9.978;2024-02-26T15:07:54;12.40;66.00
25438;DHT22;13364;49.084;9.978;2024-02-26T15:10:21;12.50;66.10
25438;DHT22;13364;49.084;9.978;2024-02-26T15:12:48;12.50;66.10
25438;DHT22;13364;49.084;9.978;2024-02-26T15:15:15;12.40;66.00
25438;DHT22;13364;49.084;9.978;2024-02-26T15:17:42;12.40;66.30
25438;DHT22;13364;49.084;9.978;2024-02-26T15:20:10;12.40;66.10
25438;DHT22;13364;49.084;9.978;2024-02-26T15:22:38;12.40;66.10
25438;DHT22;13364;49.084;9.978;2024-02-26T15:25:05;12.30;66.00
25438;DHT22;13364;49.084;9.978;2024-02-26T15:27:32;12.30;66.20
25438;DHT22;13364;49.084;9.978;2024-02-26T15:29:58;12.30;66.40
25438;DHT22;13364;49.084;9.978;2024-02-26T15:32:27;12.30;66.70
25438;DHT22;13364;49.084;9.978;2024-02-26T15:34:54;12.30;66.70
25438;DHT22;13364;49.084;9.978;2024-02-26T15:37:21;12.20;67.10
25438;DHT22;13364;49.084;9.978;2024-02-26T15:39:48;12.20;67.10
25438;DHT22;13364;49.084;9.978;2024-02-26T15:42:15;12.20;66.80
25438;DHT22;13364;49.084;9.978;2024-02-26T15:44:42;12.20;67.30
25438;DHT22;13364;49.084;9.978;2024-02-26T15:47:10;12.10;67.10